Weather at Gilleleje Airstrip

Public forecast

Using degrees Celsius for public forecast. Weather courtesy of forecast.io.

Closest aviation weather report (METAR) to Gilleleje Airstrip

Report is more than 6 hours old.

Closest report is Ängelholm-Helsingborg Airport, 20.9 nm (38.7 km) ENE.

2022/11/14 15:20 (retrieved 2 years ago)

ESTA 141520Z 11010KT 9999 BKN016 10/07 Q1019

Closest aviation forecast (TAF) to Gilleleje Airstrip

Forecast is more than 12 hours old.

Closest forecast is Copenhagen Kastrup Airport, 31.4 nm (58.1 km) SSE.

2023/02/22 18:00 (retrieved 1 year ago)

TAF EKCH 221705Z 2218/2318 13015KT 9999 BKN025 TEMPO 2218/2305 14015G25KT BECMG 2305/2307 BKN012 TEMPO 2307/2318 4000 RADZ BKN005 BECMG 2316/2318 30010KT